createdAt,value
2019-03-17T00:02:17.312Z,32.43
2019-03-17T00:04:48.035Z,31.17
2019-03-17T00:07:18.557Z,32.13
2019-03-17T00:09:49.136Z,29.37
2019-03-17T00:12:19.789Z,24.40
2019-03-17T00:14:50.575Z,27.30
2019-03-17T00:17:20.983Z,22.20
2019-03-17T00:19:51.411Z,28.47
2019-03-17T00:22:21.989Z,26.97
2019-03-17T00:24:52.513Z,24.50
2019-03-17T00:27:22.953Z,26.70
2019-03-17T00:29:53.515Z,26.23
2019-03-17T00:32:23.945Z,24.67
2019-03-17T00:34:54.439Z,22.20
2019-03-17T00:37:25.039Z,24.67
2019-03-17T00:39:55.569Z,24.83
2019-03-17T00:42:26.315Z,22.73
2019-03-17T00:44:56.770Z,23.87
2019-03-17T00:47:27.323Z,25.63
2019-03-17T00:49:58.108Z,18.53
2019-03-17T00:52:28.679Z,20.97
2019-03-17T00:54:59.254Z,18.80
2019-03-17T00:57:29.846Z,16.07
2019-03-17T01:00:00.525Z,16.13
2019-03-17T01:02:31.060Z,16.53
2019-03-17T01:05:01.625Z,21.17
2019-03-17T01:07:32.278Z,21.13
2019-03-17T01:10:02.725Z,17.77
2019-03-17T01:12:33.673Z,18.27
2019-03-17T01:15:04.441Z,17.90
2019-03-17T01:17:35.028Z,14.83
2019-03-17T01:20:06.495Z,14.07
2019-03-17T01:22:37.027Z,14.93
2019-03-17T01:25:07.859Z,15.90
2019-03-17T01:27:38.459Z,15.20
2019-03-17T01:30:09.379Z,12.03
2019-03-17T01:32:39.946Z,15.03
2019-03-17T01:35:10.475Z,11.70
2019-03-17T01:37:41.144Z,11.20
2019-03-17T01:40:11.867Z,12.10
2019-03-17T01:42:48.559Z,16.73
2019-03-17T01:45:19.055Z,13.60
2019-03-17T01:47:49.537Z,11.30
2019-03-17T01:50:20.033Z,11.20
2019-03-17T01:52:50.567Z,11.90
2019-03-17T01:55:21.370Z,13.27
2019-03-17T01:57:51.873Z,13.30
2019-03-17T02:00:22.377Z,14.03
2019-03-17T02:02:52.912Z,15.70
2019-03-17T02:05:23.412Z,12.70
2019-03-17T02:07:54.050Z,13.87
2019-03-17T02:10:24.496Z,12.70
2019-03-17T02:12:56.412Z,15.50
2019-03-17T02:15:26.829Z,18.60
2019-03-17T02:17:57.232Z,15.23
2019-03-17T02:20:27.853Z,13.87
2019-03-17T02:22:58.553Z,18.23
2019-03-17T02:25:28.982Z,19.63
2019-03-17T02:27:59.414Z,14.30
2019-03-17T02:30:29.833Z,17.33
2019-03-17T02:33:00.466Z,17.67
2019-03-17T02:35:39.010Z,14.73
2019-03-17T02:38:02.951Z,14.43
2019-03-17T02:40:33.417Z,14.33
2019-03-17T02:43:03.996Z,15.37
2019-03-17T02:45:34.420Z,17.03
2019-03-17T02:48:05.167Z,15.93
2019-03-17T02:50:35.765Z,16.17
2019-03-17T02:53:06.440Z,16.43
2019-03-17T02:55:36.835Z,16.80
2019-03-17T02:58:07.474Z,17.47
2019-03-17T03:00:38.007Z,19.33
2019-03-17T03:03:08.572Z,19.97
2019-03-17T03:05:54.005Z,18.53
2019-03-17T03:08:11.249Z,17.73
2019-03-17T03:10:41.769Z,15.73
2019-03-17T03:13:13.453Z,19.73
2019-03-17T03:15:43.912Z,18.33
2019-03-17T03:18:14.941Z,17.73
2019-03-17T03:20:45.358Z,19.13
2019-03-17T03:23:15.940Z,16.47
2019-03-17T03:25:46.382Z,16.20
2019-03-17T03:28:17.971Z,16.27
2019-03-17T03:30:48.468Z,16.13
2019-03-17T03:33:18.868Z,19.27
2019-03-17T03:35:49.395Z,17.03
2019-03-17T03:38:19.833Z,18.77
2019-03-17T03:40:50.327Z,16.33
2019-03-17T03:43:20.749Z,19.33
2019-03-17T03:45:51.300Z,20.53
2019-03-17T03:48:21.841Z,17.40
2019-03-17T03:50:52.364Z,19.57
2019-03-17T03:53:22.934Z,19.43
2019-03-17T03:55:53.590Z,20.63
2019-03-17T03:58:24.254Z,23.27
2019-03-17T04:00:54.744Z,20.27
2019-03-17T04:03:25.190Z,22.07
2019-03-17T04:05:55.644Z,22.83
2019-03-17T04:08:26.073Z,22.20
2019-03-17T04:10:56.596Z,23.77
2019-03-17T04:13:27.232Z,27.80
2019-03-17T04:15:57.804Z,22.10
2019-03-17T04:18:28.303Z,23.97
2019-03-17T04:20:58.877Z,22.30
2019-03-17T04:23:29.666Z,25.30
2019-03-17T04:26:00.239Z,24.83
2019-03-17T04:28:30.873Z,26.13
2019-03-17T04:31:01.370Z,26.63
2019-03-17T04:33:31.776Z,26.73
2019-03-17T04:36:02.370Z,29.17
2019-03-17T04:38:32.889Z,29.30
2019-03-17T04:41:03.567Z,27.70
2019-03-17T04:43:33.989Z,27.57
2019-03-17T04:46:05.713Z,27.43
2019-03-17T04:48:36.130Z,28.03
2019-03-17T04:51:06.931Z,27.30
2019-03-17T04:53:37.617Z,27.17
2019-03-17T04:56:08.286Z,31.00
2019-03-17T04:58:38.879Z,29.20
2019-03-17T05:01:09.327Z,28.33
2019-03-17T05:03:39.725Z,30.23
2019-03-17T05:06:10.151Z,30.80
2019-03-17T05:08:40.580Z,26.50
2019-03-17T05:11:11.233Z,27.83
2019-03-17T05:13:42.000Z,32.20
2019-03-17T05:16:12.587Z,31.83
2019-03-17T05:18:43.059Z,28.87
2019-03-17T05:21:13.695Z,29.77
2019-03-17T05:23:44.194Z,30.30
2019-03-17T05:26:14.734Z,31.97
2019-03-17T05:28:45.246Z,31.00
2019-03-17T05:31:15.870Z,28.90
2019-03-17T05:33:46.376Z,28.33
2019-03-17T05:36:16.842Z,29.77
2019-03-17T05:38:47.282Z,32.20
2019-03-17T05:41:17.935Z,31.17
2019-03-17T05:43:48.350Z,30.43
2019-03-17T05:46:18.968Z,29.03
2019-03-17T05:48:49.392Z,29.77
2019-03-17T05:51:19.992Z,31.17
2019-03-17T05:53:50.686Z,30.60
2019-03-17T05:56:21.216Z,33.23
2019-03-17T05:58:51.637Z,28.10
2019-03-17T06:01:22.151Z,28.40
2019-03-17T06:03:52.593Z,28.07
2019-03-17T06:06:23.305Z,26.07
2019-03-17T06:08:53.938Z,25.97
2019-03-17T06:11:24.568Z,25.70
2019-03-17T06:13:55.359Z,26.83
2019-03-17T06:16:25.875Z,27.53
2019-03-17T06:18:56.449Z,27.77
2019-03-17T06:21:27.131Z,33.30
2019-03-17T06:23:57.643Z,25.87
2019-03-17T06:26:28.355Z,29.30
2019-03-17T06:28:59.091Z,26.47
2019-03-17T06:31:30.735Z,28.33
2019-03-17T06:34:01.418Z,26.13
2019-03-17T06:36:31.934Z,25.73
2019-03-17T06:39:02.632Z,26.40
2019-03-17T06:41:33.321Z,23.70
2019-03-17T06:44:04.017Z,22.13
2019-03-17T06:46:34.443Z,22.67
2019-03-17T06:49:05.498Z,23.77
2019-03-17T06:51:36.058Z,24.30
2019-03-17T06:54:06.658Z,23.33
2019-03-17T06:56:37.691Z,23.73
2019-03-17T06:59:08.270Z,21.80
2019-03-17T07:01:39.054Z,20.80
2019-03-17T07:04:09.686Z,20.70
2019-03-17T07:06:40.320Z,23.43
2019-03-17T07:09:10.944Z,24.97
2019-03-17T07:11:41.508Z,20.13
2019-03-17T07:14:12.148Z,19.70
2019-03-17T07:16:42.544Z,21.27
2019-03-17T07:19:13.069Z,22.13
2019-03-17T07:21:43.769Z,19.23
2019-03-17T07:24:14.373Z,20.70
2019-03-17T07:26:45.073Z,21.07
2019-03-17T07:29:15.516Z,24.90
2019-03-17T07:31:45.974Z,21.20
2019-03-17T07:34:16.427Z,21.93
2019-03-17T07:36:46.950Z,19.10
2019-03-17T07:39:17.850Z,18.83
2019-03-17T07:41:48.400Z,19.37
2019-03-17T07:44:19.641Z,18.10
2019-03-17T07:46:50.083Z,18.50
2019-03-17T07:49:20.735Z,20.23
2019-03-17T07:51:51.210Z,18.00
2019-03-17T07:54:21.739Z,18.90
2019-03-17T07:56:53.285Z,18.77
2019-03-17T07:59:23.881Z,18.37
2019-03-17T08:01:54.389Z,17.23
2019-03-17T08:04:25.153Z,17.70
2019-03-17T08:06:55.619Z,16.47
2019-03-17T08:09:26.191Z,16.13
2019-03-17T08:11:56.965Z,15.63
2019-03-17T08:14:27.629Z,14.47
2019-03-17T08:16:58.082Z,14.57
2019-03-17T08:19:28.700Z,15.93
2019-03-17T08:21:59.282Z,13.90
2019-03-17T08:24:29.741Z,14.13
2019-03-17T08:27:00.408Z,14.60
2019-03-17T08:29:30.985Z,14.47
2019-03-17T08:32:01.619Z,14.93
2019-03-17T08:34:32.350Z,13.07
2019-03-17T08:37:02.889Z,13.93
2019-03-17T08:39:33.678Z,13.10
2019-03-17T08:42:04.203Z,11.23
2019-03-17T08:44:34.838Z,12.33
2019-03-17T08:47:05.418Z,10.93
2019-03-17T08:49:36.419Z,11.53
2019-03-17T08:52:06.906Z,11.07
2019-03-17T08:54:38.416Z,11.13
2019-03-17T08:57:08.906Z,10.03
2019-03-17T08:59:40.650Z,10.50
2019-03-17T09:02:11.058Z,9.67
2019-03-17T09:04:41.612Z,10.13
2019-03-17T09:07:12.123Z,9.50
2019-03-17T09:09:42.583Z,10.47
2019-03-17T09:12:13.038Z,9.47
2019-03-17T09:14:43.509Z,15.13
2019-03-17T09:17:14.866Z,9.83
2019-03-17T09:19:45.769Z,9.37
2019-03-17T09:22:16.206Z,10.63
2019-03-17T09:24:46.591Z,9.10
2019-03-17T09:27:17.161Z,9.07
2019-03-17T09:29:47.549Z,10.57
2019-03-17T09:32:18.015Z,8.60
2019-03-17T09:34:48.472Z,8.70
2019-03-17T09:37:19.104Z,8.27
2019-03-17T09:39:49.652Z,9.27
2019-03-17T09:42:20.115Z,8.53
2019-03-17T09:44:50.577Z,6.27
2019-03-17T09:47:21.079Z,6.47
2019-03-17T09:49:51.534Z,6.80
2019-03-17T09:52:22.074Z,9.90
2019-03-17T09:54:52.505Z,6.43
2019-03-17T09:57:22.988Z,6.53
2019-03-17T09:59:53.700Z,6.30
2019-03-17T10:02:24.322Z,7.23
2019-03-17T10:04:54.961Z,7.30
2019-03-17T10:07:25.420Z,7.03
2019-03-17T10:09:56.016Z,6.20
2019-03-17T10:12:26.531Z,7.90
2019-03-17T10:14:57.274Z,6.27
2019-03-17T10:17:27.764Z,7.97
2019-03-17T10:19:58.229Z,5.90
2019-03-17T10:22:28.642Z,6.87
2019-03-17T10:24:59.302Z,6.33
2019-03-17T10:27:29.838Z,6.80
2019-03-17T10:30:01.758Z,6.70
2019-03-17T10:32:32.392Z,6.17
2019-03-17T10:35:03.060Z,9.20
2019-03-17T10:37:33.870Z,7.80
2019-03-17T10:40:05.445Z,7.07
2019-03-17T10:42:36.093Z,7.17
2019-03-17T10:45:06.932Z,6.60
2019-03-17T10:47:37.739Z,6.97
2019-03-17T10:50:10.968Z,6.60
2019-03-17T10:52:41.937Z,7.70
2019-03-17T10:55:12.933Z,7.60
2019-03-17T10:57:44.117Z,6.33
2019-03-17T11:00:15.581Z,6.20
2019-03-17T11:02:46.387Z,8.43
2019-03-17T11:05:17.169Z,7.20
2019-03-17T11:07:47.716Z,7.73
2019-03-17T11:10:18.691Z,6.93
2019-03-17T11:12:49.558Z,6.40
2019-03-17T11:15:20.572Z,5.53
2019-03-17T11:17:51.462Z,6.17
2019-03-17T11:20:22.294Z,6.33
2019-03-17T11:22:53.132Z,5.97
2019-03-17T11:25:23.735Z,5.10
2019-03-17T11:27:54.329Z,5.73
2019-03-17T11:30:25.186Z,5.07
2019-03-17T11:32:55.830Z,5.23
2019-03-17T11:35:26.370Z,5.57
2019-03-17T11:37:56.797Z,6.43
2019-03-17T11:40:27.558Z,4.50
2019-03-17T11:42:58.305Z,4.63
2019-03-17T11:45:29.054Z,5.30
2019-03-17T11:48:00.392Z,5.53
2019-03-17T11:50:31.242Z,5.07
2019-03-17T11:53:02.032Z,3.93
2019-03-17T11:55:32.878Z,4.77
2019-03-17T11:58:03.714Z,4.53
2019-03-17T12:00:34.338Z,4.03
2019-03-17T12:03:04.870Z,6.27
2019-03-17T12:05:35.643Z,4.20
2019-03-17T12:08:06.386Z,3.87
2019-03-17T12:10:37.298Z,3.87
2019-03-17T12:13:07.882Z,3.50
2019-03-17T12:15:38.403Z,4.47
2019-03-17T12:18:09.581Z,3.50
2019-03-17T12:20:42.767Z,3.07
2019-03-17T12:23:13.805Z,3.23
2019-03-17T12:25:44.593Z,4.13
2019-03-17T12:28:15.159Z,6.17
2019-03-17T12:30:46.149Z,5.00
2019-03-17T12:33:17.063Z,3.30
2019-03-17T12:35:49.270Z,3.67
2019-03-17T12:38:19.863Z,3.83
2019-03-17T12:40:52.341Z,3.17
2019-03-17T12:43:22.825Z,2.50
2019-03-17T12:45:53.634Z,3.93
2019-03-17T12:48:24.481Z,3.07
2019-03-17T12:50:55.405Z,3.10
2019-03-17T12:53:26.150Z,2.83
2019-03-17T12:55:56.957Z,3.70
2019-03-17T12:58:27.697Z,3.00
2019-03-17T13:00:59.414Z,3.17
2019-03-17T13:03:30.038Z,2.90
2019-03-17T13:06:00.844Z,3.47
2019-03-17T13:08:32.446Z,11.50
2019-03-17T13:11:03.038Z,4.03
2019-03-17T13:13:33.686Z,3.70
2019-03-17T13:16:04.350Z,3.53
2019-03-17T13:18:34.938Z,4.13
2019-03-17T13:21:05.811Z,2.97
2019-03-17T13:23:36.494Z,2.83
2019-03-17T13:26:10.171Z,2.90
2019-03-17T13:28:39.324Z,2.70
2019-03-17T13:31:10.141Z,3.33
2019-03-17T13:33:41.073Z,3.43
2019-03-17T13:36:11.740Z,2.57
2019-03-17T13:38:42.386Z,2.30
2019-03-17T13:41:13.188Z,3.40
2019-03-17T13:43:43.750Z,2.60
2019-03-17T13:46:14.329Z,2.67
2019-03-17T13:48:45.199Z,5.00
2019-03-17T13:51:15.941Z,2.87
2019-03-17T13:53:46.857Z,3.03
2019-03-17T13:56:18.455Z,4.60
2019-03-17T13:58:49.336Z,2.60
2019-03-17T14:01:20.025Z,2.90
2019-03-17T14:03:50.799Z,3.10
2019-03-17T14:06:21.219Z,4.47
2019-03-17T14:08:52.073Z,2.63
2019-03-17T14:11:22.500Z,2.33
2019-03-17T14:13:53.168Z,3.80
2019-03-17T14:16:23.943Z,3.17
2019-03-17T14:18:54.438Z,2.67
2019-03-17T14:21:25.169Z,2.43
2019-03-17T14:23:55.616Z,3.80
2019-03-17T14:26:26.566Z,2.87
2019-03-17T14:28:57.302Z,2.90
2019-03-17T14:31:27.792Z,4.90
2019-03-17T14:33:58.510Z,2.90
2019-03-17T14:36:29.101Z,4.13
2019-03-17T14:39:00.702Z,3.53
2019-03-17T14:41:32.110Z,2.67
2019-03-17T14:44:02.686Z,3.10
2019-03-17T14:46:35.595Z,2.40
2019-03-17T14:49:05.302Z,3.63
2019-03-17T14:51:35.915Z,2.57
2019-03-17T14:54:06.602Z,2.53
2019-03-17T15:00:24.166Z,2.30
2019-03-17T15:02:54.990Z,2.97
2019-03-17T15:05:25.836Z,3.00
2019-03-17T15:07:57.477Z,5.43
2019-03-17T15:10:28.078Z,3.53
2019-03-17T15:12:58.843Z,2.50
2019-03-17T15:15:29.293Z,3.10
2019-03-17T15:18:06.060Z,4.07
2019-03-17T15:20:36.849Z,4.93
2019-03-17T15:23:07.419Z,2.77
2019-03-17T15:25:38.330Z,5.87
2019-03-17T15:28:08.953Z,3.20
2019-03-17T15:30:39.783Z,3.13
2019-03-17T15:33:10.279Z,3.00
2019-03-17T15:35:40.773Z,3.80
2019-03-17T15:38:11.365Z,3.43
2019-03-17T15:40:42.205Z,5.97
2019-03-17T15:43:12.967Z,4.70
2019-03-17T15:45:43.456Z,3.43
2019-03-17T15:48:13.994Z,3.27
2019-03-17T15:50:44.763Z,4.40
2019-03-17T15:53:15.701Z,7.60
2019-03-17T15:55:46.535Z,3.90
2019-03-17T15:58:17.205Z,4.27
2019-03-17T16:00:48.074Z,3.07
2019-03-17T16:03:19.591Z,5.00
2019-03-17T16:05:50.256Z,4.20
2019-03-17T16:08:20.849Z,3.17
2019-03-17T16:10:51.393Z,3.80
2019-03-17T16:13:22.217Z,4.13
2019-03-17T16:15:52.700Z,6.70
2019-03-17T16:18:23.287Z,3.40
2019-03-17T16:20:54.154Z,4.07
2019-03-17T16:23:24.666Z,4.00
2019-03-17T16:25:55.794Z,3.70
2019-03-17T16:28:26.306Z,4.20
2019-03-17T16:30:56.842Z,4.47
2019-03-17T16:33:27.540Z,6.53
2019-03-17T16:35:58.165Z,6.37
2019-03-17T16:38:28.842Z,5.60
2019-03-17T16:40:59.677Z,6.83
2019-03-17T16:43:30.480Z,4.67
2019-03-17T16:46:01.455Z,3.20
2019-03-17T16:48:31.982Z,4.03
2019-03-17T16:51:02.949Z,4.47
2019-03-17T16:53:34.457Z,5.50
2019-03-17T16:56:05.025Z,7.93
2019-03-17T16:58:35.701Z,5.87
2019-03-17T17:01:06.527Z,6.73
2019-03-17T17:03:37.564Z,12.17
2019-03-17T17:06:08.543Z,7.80
2019-03-17T17:08:39.056Z,8.80
2019-03-17T17:11:09.740Z,10.03
2019-03-17T17:13:40.215Z,6.57
2019-03-17T17:16:11.185Z,6.93
2019-03-17T17:18:42.027Z,8.47
2019-03-17T17:21:12.765Z,4.40
2019-03-17T17:23:43.316Z,6.97
2019-03-17T17:26:14.125Z,6.00
2019-03-17T17:28:46.143Z,5.80
2019-03-17T17:31:18.088Z,5.37
2019-03-17T17:33:48.913Z,9.87
2019-03-17T17:36:19.484Z,7.93
2019-03-17T17:38:50.148Z,5.97
2019-03-17T17:41:20.805Z,7.50
2019-03-17T17:43:51.408Z,5.77
2019-03-17T17:46:22.292Z,10.43
2019-03-17T17:48:52.723Z,6.80
2019-03-17T17:51:23.480Z,13.17
2019-03-17T17:53:54.296Z,8.47
2019-03-17T17:56:25.222Z,6.03
2019-03-17T17:58:55.702Z,7.40
2019-03-17T18:01:26.394Z,6.27
2019-03-17T18:03:57.070Z,5.10
2019-03-17T18:06:32.560Z,4.70
2019-03-17T18:09:03.690Z,7.87
2019-03-17T18:11:34.622Z,6.43
2019-03-17T18:14:06.477Z,7.13
2019-03-17T18:16:41.558Z,12.47
2019-03-17T18:19:14.832Z,6.57
2019-03-17T18:21:48.396Z,6.73
2019-03-17T18:24:21.662Z,8.20
2019-03-17T18:26:57.021Z,9.67
2019-03-17T18:29:30.130Z,6.53
2019-03-17T18:32:02.834Z,7.77
2019-03-17T18:38:21.201Z,5.87
2019-03-17T18:40:53.087Z,7.23
2019-03-17T18:43:26.159Z,7.27
2019-03-17T18:45:57.705Z,6.93
2019-03-17T18:48:28.899Z,7.07
2019-03-17T18:51:02.617Z,9.00
2019-03-17T18:53:34.909Z,7.93
2019-03-17T18:56:06.659Z,8.27
2019-03-17T18:58:37.557Z,7.80
2019-03-17T19:01:08.331Z,9.00
2019-03-17T19:03:39.152Z,8.87
2019-03-17T19:06:10.009Z,7.80
2019-03-17T19:08:48.303Z,8.10
2019-03-17T19:11:18.948Z,8.07
2019-03-17T19:13:50.766Z,9.93
2019-03-17T19:16:22.646Z,9.23
2019-03-17T19:18:53.817Z,11.30
2019-03-17T19:21:24.372Z,10.77
2019-03-17T19:23:55.208Z,9.43
2019-03-17T19:26:25.962Z,11.43
2019-03-17T19:28:56.982Z,10.57
2019-03-17T19:31:27.674Z,14.07
2019-03-17T19:33:58.144Z,12.30
2019-03-17T19:36:28.754Z,12.83
2019-03-17T19:38:59.507Z,11.83
2019-03-17T19:41:30.327Z,16.87
2019-03-17T19:44:01.218Z,13.07
2019-03-17T19:46:32.081Z,14.57
2019-03-17T19:49:03.182Z,15.57
2019-03-17T19:51:34.711Z,10.93
2019-03-17T19:54:07.123Z,10.20
2019-03-17T19:56:38.083Z,12.90
2019-03-17T19:59:08.880Z,11.60
2019-03-17T20:01:40.673Z,15.93
2019-03-17T20:04:11.339Z,14.43
2019-03-17T20:06:42.558Z,14.33
2019-03-17T20:09:13.960Z,19.20
2019-03-17T20:11:45.207Z,17.57
2019-03-17T20:14:16.255Z,19.00
2019-03-17T20:16:46.997Z,18.07
2019-03-17T20:19:19.105Z,15.27
2019-03-17T20:21:50.015Z,15.70
2019-03-17T20:24:21.142Z,15.80
2019-03-17T20:26:51.872Z,15.30
2019-03-17T20:29:22.425Z,17.47
2019-03-17T20:31:54.135Z,16.67
2019-03-17T20:34:24.728Z,13.93
2019-03-17T20:36:55.455Z,15.80
2019-03-17T20:39:25.992Z,17.63
2019-03-17T20:41:56.823Z,15.40
2019-03-17T20:44:27.934Z,18.10
2019-03-17T20:46:58.576Z,14.93
2019-03-17T20:49:29.502Z,13.67
2019-03-17T20:52:00.585Z,15.50
2019-03-17T20:54:31.402Z,17.00
2019-03-17T20:57:01.941Z,14.07
2019-03-17T20:59:34.127Z,21.60
2019-03-17T21:02:05.128Z,26.73
2019-03-17T21:04:36.070Z,31.47
2019-03-17T21:07:06.685Z,40.23
2019-03-17T21:09:37.635Z,50.07
2019-03-17T21:12:08.208Z,49.43
2019-03-17T21:14:39.061Z,43.93
2019-03-17T21:17:09.673Z,40.63
2019-03-17T21:19:40.533Z,39.73
2019-03-17T21:22:11.407Z,40.77
2019-03-17T21:24:42.422Z,46.83
2019-03-17T21:27:13.433Z,40.57
2019-03-17T21:29:44.454Z,37.40
2019-03-17T21:32:15.477Z,43.57
2019-03-17T21:34:46.697Z,37.50
2019-03-17T21:37:17.432Z,45.47
2019-03-17T21:39:48.465Z,178.50
2019-03-17T21:42:19.139Z,108.07
2019-03-17T21:44:50.113Z,55.13
2019-03-17T21:47:20.558Z,37.10
2019-03-17T21:49:51.343Z,34.93
2019-03-17T21:52:21.789Z,24.33
2019-03-17T21:54:52.398Z,22.77
2019-03-17T21:57:24.126Z,21.10
2019-03-17T21:59:54.912Z,17.70
2019-03-17T22:02:25.388Z,18.80
2019-03-17T22:04:56.404Z,16.00
2019-03-17T22:07:27.262Z,16.37
2019-03-17T22:09:58.282Z,19.40
2019-03-17T22:12:28.752Z,17.47
2019-03-17T22:14:59.312Z,13.93
2019-03-17T22:17:30.181Z,21.33
2019-03-17T22:20:00.760Z,20.47
2019-03-17T22:22:33.018Z,20.87
2019-03-17T22:25:03.747Z,20.93
2019-03-17T22:27:34.522Z,21.23
2019-03-17T22:30:06.240Z,22.87
2019-03-17T22:32:37.066Z,21.67
2019-03-17T22:35:08.516Z,15.17
2019-03-17T22:37:39.340Z,11.80
2019-03-17T22:40:11.981Z,11.23
2019-03-17T22:42:42.552Z,8.27
2019-03-17T22:45:13.591Z,5.93
2019-03-17T22:47:44.131Z,7.83
2019-03-17T22:50:14.753Z,15.90
2019-03-17T22:52:45.477Z,7.37
2019-03-17T22:55:16.495Z,7.80
2019-03-17T22:57:47.408Z,5.77
2019-03-17T23:00:22.363Z,6.33
2019-03-17T23:02:55.083Z,3.50
2019-03-17T23:05:27.001Z,2.73
2019-03-17T23:07:57.909Z,8.53
2019-03-17T23:10:29.293Z,1.63
2019-03-17T23:13:06.159Z,2.47
2019-03-17T23:15:37.407Z,1.63
2019-03-17T23:18:08.631Z,2.87
2019-03-17T23:20:39.887Z,2.00
2019-03-17T23:23:12.379Z,2.27
2019-03-17T23:25:43.385Z,2.03
2019-03-17T23:28:14.883Z,1.40
2019-03-17T23:30:46.173Z,1.60
2019-03-17T23:33:17.290Z,2.50
2019-03-17T23:35:48.595Z,1.93
2019-03-17T23:38:19.644Z,1.70
2019-03-17T23:40:50.988Z,1.63
2019-03-17T23:43:22.087Z,2.47
2019-03-17T23:45:53.354Z,1.30
2019-03-17T23:48:24.471Z,2.50
2019-03-17T23:50:55.796Z,2.03
2019-03-17T23:53:27.332Z,2.30
2019-03-17T23:55:58.581Z,1.47
2019-03-17T23:58:30.038Z,1.63
